sim
Sign-in with your pilot id or email,
or register
Callsign
Passwort

Schedule Details

Flight Number: EWG1783 (2)
Departure: Palma de Mallorca Airport (LEPA) at 18:15
Arrival: Munich Airport (EDDM) at 20:25
Route: Eurowings Passenger Schedule. Enter filed route here before submitting Pirep.

Weather Information
Getting current METAR information for LEPA 211730Z 23006KT 200V260 9999 FEW020 26/19 Q1015 NOSIG
Getting current METAR information for EDDM 211750Z VRB01KT CAVOK 16/13 Q1015 NOSIG

Schedule Frequency

Route Map